createdAt,value
2018-11-13T00:01:47.829Z,8.70
2018-11-13T00:04:52.108Z,8.60
2018-11-13T00:07:56.395Z,8.60
2018-11-13T00:11:00.661Z,8.70
2018-11-13T00:14:05.023Z,8.70
2018-11-13T00:17:09.279Z,8.70
2018-11-13T00:20:15.657Z,8.70
2018-11-13T00:23:19.943Z,8.70
2018-11-13T00:26:24.220Z,8.70
2018-11-13T00:29:28.551Z,8.70
2018-11-13T00:32:32.779Z,8.80
2018-11-13T00:35:37.039Z,8.70
2018-11-13T00:38:41.277Z,8.80
2018-11-13T00:41:45.546Z,8.80
2018-11-13T00:44:49.828Z,8.80
2018-11-13T00:47:54.089Z,8.80
2018-11-13T00:50:58.338Z,8.80
2018-11-13T00:54:02.622Z,8.70
2018-11-13T00:57:07.256Z,8.70
2018-11-13T01:00:15.852Z,8.70
2018-11-13T01:03:20.102Z,8.70
2018-11-13T01:06:24.405Z,8.70
2018-11-13T01:09:28.645Z,8.70
2018-11-13T01:12:32.952Z,8.70
2018-11-13T01:15:37.206Z,8.70
2018-11-13T01:18:41.493Z,8.70
2018-11-13T01:21:45.743Z,8.70
2018-11-13T01:24:49.979Z,8.80
2018-11-13T01:27:54.255Z,8.80
2018-11-13T01:30:58.523Z,8.80
2018-11-13T01:34:02.798Z,8.80
2018-11-13T01:37:07.047Z,8.70
2018-11-13T01:40:14.584Z,8.80
2018-11-13T01:43:18.865Z,8.70
2018-11-13T01:46:23.132Z,8.70
2018-11-13T01:49:27.412Z,8.70
2018-11-13T01:52:31.690Z,8.70
2018-11-13T01:55:35.932Z,8.60
2018-11-13T01:58:40.183Z,8.60
2018-11-13T02:01:44.442Z,8.70
2018-11-13T02:04:48.722Z,8.70
2018-11-13T02:07:53.718Z,8.70
2018-11-13T02:10:57.997Z,8.60
2018-11-13T02:14:02.256Z,8.70
2018-11-13T02:17:06.966Z,8.70
2018-11-13T02:20:16.317Z,8.60
2018-11-13T02:23:20.584Z,8.60
2018-11-13T02:26:24.840Z,8.70
2018-11-13T02:29:29.133Z,8.70
2018-11-13T02:32:33.408Z,8.60
2018-11-13T02:35:37.695Z,8.60
2018-11-13T02:38:41.950Z,8.60
2018-11-13T02:41:46.210Z,8.60
2018-11-13T02:44:50.494Z,8.60
2018-11-13T02:47:54.757Z,8.60
2018-11-13T02:50:58.993Z,8.60
2018-11-13T02:54:03.262Z,8.60
2018-11-13T02:57:07.527Z,8.60
2018-11-13T03:00:20.373Z,8.60
2018-11-13T03:03:24.621Z,8.60
2018-11-13T03:06:28.962Z,8.60
2018-11-13T03:09:33.204Z,8.60
2018-11-13T03:12:37.498Z,8.60
2018-11-13T03:15:41.761Z,8.60
2018-11-13T03:18:46.034Z,8.70
2018-11-13T03:21:50.288Z,8.60
2018-11-13T03:24:54.576Z,8.70
2018-11-13T03:27:58.855Z,8.60
2018-11-13T03:31:03.175Z,8.70
2018-11-13T03:34:07.377Z,8.70
2018-11-13T03:37:11.633Z,8.70
2018-11-13T03:40:16.334Z,8.70
2018-11-13T03:43:20.563Z,8.70
2018-11-13T03:46:24.859Z,8.70
2018-11-13T03:49:29.125Z,8.70
2018-11-13T03:52:33.433Z,8.70
2018-11-13T03:55:37.681Z,8.70
2018-11-13T03:58:41.953Z,8.60
2018-11-13T04:01:46.258Z,8.60
2018-11-13T04:04:50.509Z,8.60
2018-11-13T04:07:55.537Z,8.60
2018-11-13T04:11:00.026Z,8.70
2018-11-13T04:14:04.409Z,8.70
2018-11-13T04:17:08.659Z,8.60
2018-11-13T04:20:14.955Z,8.60
2018-11-13T04:23:19.222Z,8.50
2018-11-13T04:26:23.618Z,8.50
2018-11-13T04:29:27.841Z,8.50
2018-11-13T04:32:32.113Z,8.40
2018-11-13T04:35:36.371Z,8.40
2018-11-13T04:38:40.622Z,8.40
2018-11-13T04:41:44.844Z,8.30
2018-11-13T04:44:49.116Z,8.40
2018-11-13T04:47:53.375Z,8.30
2018-11-13T04:50:57.671Z,8.30
2018-11-13T04:54:01.905Z,8.30
2018-11-13T04:57:06.735Z,8.20
2018-11-13T05:00:14.565Z,8.30
2018-11-13T05:03:18.818Z,8.20
2018-11-13T05:06:23.073Z,8.20
2018-11-13T05:09:27.356Z,8.10
2018-11-13T05:12:31.605Z,8.10
2018-11-13T05:15:35.851Z,8.00
2018-11-13T05:18:40.105Z,8.00
2018-11-13T05:21:44.349Z,7.90
2018-11-13T05:24:48.633Z,7.90
2018-11-13T05:27:52.861Z,7.90
2018-11-13T05:30:57.112Z,7.90
2018-11-13T05:34:01.357Z,7.80
2018-11-13T05:37:05.633Z,7.80
2018-11-13T05:40:14.787Z,7.80
2018-11-13T05:43:19.029Z,7.80
2018-11-13T05:46:23.307Z,7.80
2018-11-13T05:49:27.539Z,7.80
2018-11-13T05:52:31.802Z,7.80
2018-11-13T05:55:36.037Z,7.70
2018-11-13T05:58:40.628Z,7.70
2018-11-13T06:01:44.865Z,7.70
2018-11-13T06:04:49.133Z,7.60
2018-11-13T06:07:53.405Z,7.60
2018-11-13T06:10:57.643Z,7.60
2018-11-13T06:14:01.969Z,7.60
2018-11-13T06:17:06.342Z,7.50
2018-11-13T06:20:13.568Z,7.50
2018-11-13T06:23:17.813Z,7.50
2018-11-13T06:26:22.076Z,7.40
2018-11-13T06:29:26.368Z,7.40
2018-11-13T06:32:30.570Z,7.40
2018-11-13T06:35:34.816Z,7.30
2018-11-13T06:38:39.110Z,7.30
2018-11-13T06:41:44.224Z,7.30
2018-11-13T06:44:48.456Z,7.20
2018-11-13T06:47:53.082Z,7.30
2018-11-13T06:50:57.345Z,7.20
2018-11-13T06:55:23.037Z,7.20
2018-11-13T06:58:27.267Z,7.20
2018-11-13T07:01:31.533Z,7.20
2018-11-13T07:04:35.803Z,7.20
2018-11-13T07:07:40.295Z,7.20
2018-11-13T07:10:44.599Z,7.20
2018-11-13T07:13:48.864Z,7.20
2018-11-13T07:16:53.116Z,7.20
2018-11-13T07:19:57.369Z,7.20
2018-11-13T07:23:01.630Z,7.20
2018-11-13T07:26:06.977Z,7.20
2018-11-13T07:29:11.239Z,7.10
2018-11-13T07:32:15.460Z,7.10
2018-11-13T07:35:20.615Z,7.10
2018-11-13T07:38:24.857Z,7.10
2018-11-13T07:41:29.120Z,7.10
2018-11-13T07:44:33.396Z,7.10
2018-11-13T07:47:37.765Z,7.10
2018-11-13T07:50:41.912Z,7.10
2018-11-13T07:53:46.164Z,7.10
2018-11-13T07:56:50.473Z,7.10
2018-11-13T07:59:54.724Z,7.10
2018-11-13T08:03:43.450Z,7.10
2018-11-13T08:06:47.807Z,7.10
2018-11-13T08:09:52.076Z,7.10
2018-11-13T08:12:56.413Z,7.20
2018-11-13T08:16:00.704Z,7.30
2018-11-13T08:19:05.323Z,7.30
2018-11-13T08:22:09.684Z,7.40
2018-11-13T08:25:13.981Z,7.50
2018-11-13T08:28:18.236Z,7.50
2018-11-13T08:31:22.552Z,7.60
2018-11-13T08:34:26.796Z,7.70
2018-11-13T08:37:31.048Z,7.70
2018-11-13T08:40:35.304Z,7.80
2018-11-13T08:43:39.596Z,7.90
2018-11-13T08:46:43.918Z,7.90
2018-11-13T08:49:48.183Z,7.90
2018-11-13T08:52:52.484Z,8.00
2018-11-13T08:55:56.703Z,8.00
2018-11-13T08:59:01.083Z,8.10
2018-11-13T09:02:05.382Z,8.10
2018-11-13T09:05:10.352Z,8.10
2018-11-13T09:08:14.533Z,8.10
2018-11-13T09:11:18.866Z,8.10
2018-11-13T09:14:23.120Z,8.10
2018-11-13T09:17:27.376Z,8.20
2018-11-13T09:20:31.636Z,8.20
2018-11-13T09:23:35.928Z,8.20
2018-11-13T09:26:40.163Z,8.30
2018-11-13T09:29:44.479Z,8.30
2018-11-13T09:32:49.114Z,8.40
2018-11-13T09:35:53.399Z,8.50
2018-11-13T09:38:57.605Z,8.50
2018-11-13T09:42:01.859Z,8.60
2018-11-13T09:45:06.307Z,8.70
2018-11-13T09:48:10.590Z,8.80
2018-11-13T09:51:14.844Z,8.90
2018-11-13T09:54:19.161Z,8.90
2018-11-13T09:57:23.406Z,9.00
2018-11-13T10:00:27.869Z,9.00
2018-11-13T10:03:32.431Z,9.10
2018-11-13T10:06:36.375Z,9.10
2018-11-13T10:09:40.662Z,9.10
2018-11-13T10:12:44.901Z,9.20
2018-11-13T10:15:49.170Z,9.30
2018-11-13T10:18:53.420Z,9.30
2018-11-13T10:21:57.653Z,9.40
2018-11-13T10:25:01.926Z,9.40
2018-11-13T10:28:06.337Z,9.40
2018-11-13T10:31:10.610Z,9.40
2018-11-13T10:34:14.846Z,9.30
2018-11-13T10:37:19.238Z,9.30
2018-11-13T10:40:24.213Z,9.30
2018-11-13T10:43:28.299Z,9.30
2018-11-13T10:46:32.628Z,9.30
2018-11-13T10:49:36.920Z,9.30
2018-11-13T10:52:41.640Z,9.40
2018-11-13T10:55:45.916Z,9.30
2018-11-13T10:58:50.247Z,9.30
2018-11-13T11:01:59.599Z,9.30
2018-11-13T11:05:09.902Z,9.30
2018-11-13T11:08:14.191Z,9.30
2018-11-13T11:11:18.471Z,9.30
2018-11-13T11:14:22.664Z,9.30
2018-11-13T11:17:26.925Z,9.30
2018-11-13T11:20:31.155Z,9.30
2018-11-13T11:23:35.508Z,9.30
2018-11-13T11:26:39.680Z,9.40
2018-11-13T11:29:43.926Z,9.40
2018-11-13T11:32:48.178Z,9.40
2018-11-13T11:35:52.457Z,9.40
2018-11-13T11:38:56.862Z,9.40
2018-11-13T11:42:00.971Z,9.40
2018-11-13T11:45:06.690Z,9.50
2018-11-13T11:48:10.948Z,9.50
2018-11-13T11:51:15.209Z,9.60
2018-11-13T11:54:19.482Z,9.60
2018-11-13T11:57:23.741Z,9.60
2018-11-13T12:00:31.313Z,9.60
2018-11-13T12:03:35.513Z,9.60
2018-11-13T12:06:39.789Z,9.70
2018-11-13T12:09:44.042Z,9.70
2018-11-13T12:12:48.284Z,9.80
2018-11-13T12:15:52.574Z,9.80
2018-11-13T12:18:56.921Z,9.90
2018-11-13T12:22:01.128Z,9.90
2018-11-13T12:25:07.554Z,9.90
2018-11-13T12:28:11.784Z,9.90
2018-11-13T12:31:16.028Z,10.00
2018-11-13T12:34:20.284Z,10.00
2018-11-13T12:37:24.556Z,10.00
2018-11-13T12:40:28.800Z,9.90
2018-11-13T12:43:34.588Z,10.00
2018-11-13T12:46:38.987Z,10.00
2018-11-13T12:49:43.209Z,10.00
2018-11-13T12:52:47.464Z,10.10
2018-11-13T12:55:51.946Z,10.10
2018-11-13T12:58:56.085Z,10.10
2018-11-13T13:02:00.413Z,10.10
2018-11-13T13:05:05.050Z,10.20
2018-11-13T13:08:09.299Z,10.20
2018-11-13T13:11:13.559Z,10.30
2018-11-13T13:14:18.610Z,10.40
2018-11-13T13:17:22.858Z,10.40
2018-11-13T13:20:27.256Z,10.50
2018-11-13T13:23:31.498Z,10.50
2018-11-13T13:26:36.089Z,10.40
2018-11-13T13:29:40.339Z,10.40
2018-11-13T13:32:45.073Z,10.40
2018-11-13T13:35:54.692Z,10.30
2018-11-13T13:38:58.954Z,10.30
2018-11-13T13:42:03.199Z,10.30
2018-11-13T13:45:07.603Z,10.30
2018-11-13T13:48:11.860Z,10.40
2018-11-13T13:51:16.127Z,10.40
2018-11-13T13:54:20.468Z,10.40
2018-11-13T13:57:24.642Z,10.40
2018-11-13T14:00:28.933Z,10.40
2018-11-13T14:03:34.783Z,10.40
2018-11-13T14:06:37.459Z,10.40
2018-11-13T14:09:41.735Z,10.40
2018-11-13T14:12:45.993Z,10.40
2018-11-13T14:15:50.240Z,10.40
2018-11-13T14:18:54.500Z,10.40
2018-11-13T14:21:58.756Z,10.40
2018-11-13T14:25:03.018Z,10.40
2018-11-13T14:28:07.302Z,10.40
2018-11-13T14:31:11.540Z,10.40
2018-11-13T14:34:15.823Z,10.30
2018-11-13T14:37:20.060Z,10.40
2018-11-13T14:40:27.379Z,10.50
2018-11-13T14:43:31.627Z,10.40
2018-11-13T14:46:36.032Z,10.40
2018-11-13T14:49:40.279Z,10.50
2018-11-13T14:52:44.836Z,10.50
2018-11-13T14:55:49.078Z,10.50
2018-11-13T14:58:53.332Z,10.60
2018-11-13T15:01:57.617Z,10.50
2018-11-13T15:05:01.860Z,10.40
2018-11-13T15:08:07.246Z,10.40
2018-11-13T15:11:11.430Z,10.40
2018-11-13T15:14:15.692Z,10.30
2018-11-13T15:17:19.957Z,10.40
2018-11-13T15:20:24.214Z,10.20
2018-11-13T15:23:28.464Z,10.10
2018-11-13T15:26:32.695Z,10.10
2018-11-13T15:29:36.923Z,10.10
2018-11-13T15:32:41.190Z,10.00
2018-11-13T15:35:45.560Z,10.00
2018-11-13T15:38:49.813Z,10.00
2018-11-13T15:41:54.056Z,10.00
2018-11-13T15:44:58.344Z,10.00
2018-11-13T15:48:03.780Z,10.00
2018-11-13T15:51:09.160Z,10.00
2018-11-13T15:54:12.285Z,10.00
2018-11-13T15:57:16.669Z,10.00
2018-11-13T16:00:25.026Z,10.00
2018-11-13T16:03:39.153Z,10.00
2018-11-13T16:06:43.466Z,10.10
2018-11-13T16:09:47.696Z,10.10
2018-11-13T16:12:51.937Z,10.10
2018-11-13T16:15:56.467Z,10.10
2018-11-13T16:19:00.713Z,10.20
2018-11-13T16:22:06.218Z,10.10
2018-11-13T16:25:09.514Z,10.20
2018-11-13T16:28:13.773Z,10.20
2018-11-13T16:31:18.039Z,10.20
2018-11-13T16:34:22.325Z,10.30
2018-11-13T16:37:26.773Z,10.30
2018-11-13T16:40:32.024Z,10.20
2018-11-13T16:43:36.227Z,10.20
2018-11-13T16:46:40.462Z,10.20
2018-11-13T16:49:44.697Z,10.20
2018-11-13T16:52:49.042Z,10.10
2018-11-13T16:55:57.828Z,10.10
2018-11-13T16:59:02.103Z,10.00
2018-11-13T17:02:06.736Z,10.00
2018-11-13T17:05:13.142Z,10.10
2018-11-13T17:08:17.387Z,10.00
2018-11-13T17:11:21.684Z,9.90
2018-11-13T17:14:25.929Z,10.00
2018-11-13T17:17:30.234Z,10.10
2018-11-13T17:20:34.533Z,10.10
2018-11-13T17:23:38.854Z,10.10
2018-11-13T17:26:43.014Z,10.10
2018-11-13T17:29:47.265Z,10.00
2018-11-13T17:32:52.032Z,10.10
2018-11-13T17:35:56.252Z,10.00
2018-11-13T17:39:00.548Z,10.00
2018-11-13T17:42:04.804Z,10.00
2018-11-13T17:45:13.715Z,10.00
2018-11-13T17:48:17.964Z,10.00
2018-11-13T17:51:22.221Z,10.00
2018-11-13T17:54:26.450Z,10.00
2018-11-13T17:57:30.684Z,10.10
2018-11-13T18:00:46.346Z,10.20
2018-11-13T18:03:50.597Z,10.20
2018-11-13T18:06:54.862Z,10.20
2018-11-13T18:09:59.150Z,10.10
2018-11-13T18:13:03.392Z,10.10
2018-11-13T18:16:07.746Z,10.10
2018-11-13T18:19:12.022Z,10.00
2018-11-13T18:22:16.608Z,10.10
2018-11-13T18:25:20.817Z,10.00
2018-11-13T18:28:25.173Z,10.10
2018-11-13T18:31:29.309Z,10.10
2018-11-13T18:34:33.533Z,10.20
2018-11-13T18:37:37.854Z,10.20
2018-11-13T18:40:42.044Z,10.30
2018-11-13T18:43:46.293Z,10.30
2018-11-13T18:46:50.533Z,10.20
2018-11-13T18:49:54.812Z,10.30
2018-11-13T18:52:59.024Z,10.20
2018-11-13T18:56:03.241Z,10.10
2018-11-13T18:59:07.531Z,10.20
2018-11-13T19:02:11.740Z,10.10
2018-11-13T19:05:16.628Z,10.10
2018-11-13T19:08:20.891Z,10.10
2018-11-13T19:11:25.194Z,10.10
2018-11-13T19:14:29.378Z,10.30
2018-11-13T19:17:33.647Z,10.20
2018-11-13T19:20:37.937Z,10.20
2018-11-13T19:23:42.211Z,10.20
2018-11-13T19:26:46.483Z,10.20
2018-11-13T19:29:50.752Z,10.20
2018-11-13T19:32:55.045Z,10.10
2018-11-13T19:35:59.405Z,10.00
2018-11-13T19:39:04.018Z,10.00
2018-11-13T19:42:08.267Z,10.00
2018-11-13T19:45:12.617Z,10.10
2018-11-13T19:48:16.953Z,10.00
2018-11-13T19:51:21.243Z,9.90
2018-11-13T19:54:25.422Z,9.80
2018-11-13T19:57:29.681Z,9.90
2018-11-13T20:00:35.452Z,9.90
2018-11-13T20:03:39.687Z,10.00
2018-11-13T20:06:43.917Z,10.00
2018-11-13T20:09:48.417Z,10.10
2018-11-13T20:12:53.574Z,10.10
2018-11-13T20:15:57.808Z,10.10
2018-11-13T20:19:02.069Z,10.10
2018-11-13T20:22:06.477Z,10.10
2018-11-13T20:25:14.073Z,10.20
2018-11-13T20:28:18.356Z,10.20
2018-11-13T20:31:22.604Z,10.20
2018-11-13T20:34:26.877Z,10.20
2018-11-13T20:37:31.177Z,10.20
2018-11-13T20:40:36.453Z,10.30
2018-11-13T20:43:40.721Z,10.30
2018-11-13T20:46:44.956Z,10.20
2018-11-13T20:49:49.222Z,10.20
2018-11-13T20:52:53.584Z,10.30
2018-11-13T20:55:57.808Z,10.30
2018-11-13T20:59:02.082Z,10.20
2018-11-13T21:02:06.383Z,10.10
2018-11-13T21:05:10.570Z,10.10
2018-11-13T21:08:14.804Z,10.10
2018-11-13T21:11:19.049Z,10.10
2018-11-13T21:14:23.286Z,10.10
2018-11-13T21:17:27.801Z,10.20
2018-11-13T21:20:32.022Z,10.20
2018-11-13T21:23:36.353Z,10.10
2018-11-13T21:26:40.821Z,10.20
2018-11-13T21:29:45.093Z,10.10
2018-11-13T21:32:50.084Z,10.20
2018-11-13T21:35:54.315Z,10.20
2018-11-13T21:38:58.575Z,10.30
2018-11-13T21:42:02.819Z,10.30
2018-11-13T21:45:08.086Z,10.30
2018-11-13T21:48:13.166Z,10.20
2018-11-13T21:51:17.405Z,10.20
2018-11-13T21:54:21.636Z,10.30
2018-11-13T21:57:25.878Z,10.30
2018-11-13T22:00:32.673Z,10.30
2018-11-13T22:03:36.907Z,10.40
2018-11-13T22:06:41.204Z,10.30
2018-11-13T22:09:45.495Z,10.40
2018-11-13T22:12:49.735Z,10.40
2018-11-13T22:15:53.991Z,10.40
2018-11-13T22:18:58.233Z,10.30
2018-11-13T22:22:02.490Z,10.30
2018-11-13T22:25:10.317Z,10.30
2018-11-13T22:28:14.577Z,10.30
2018-11-13T22:31:18.835Z,10.20
2018-11-13T22:34:23.106Z,10.20
2018-11-13T22:37:27.324Z,10.20
2018-11-13T22:40:31.586Z,10.30
2018-11-13T22:43:35.840Z,10.30
2018-11-13T22:46:40.081Z,10.40
2018-11-13T22:49:44.325Z,10.40
2018-11-13T22:52:48.856Z,10.40
2018-11-13T22:55:53.100Z,10.40
2018-11-13T22:58:57.328Z,10.40
2018-11-13T23:02:01.574Z,10.40
2018-11-13T23:05:06.577Z,10.40
2018-11-13T23:08:13.034Z,10.40
2018-11-13T23:11:17.279Z,10.40
2018-11-13T23:14:21.526Z,10.30
2018-11-13T23:17:26.186Z,10.20
2018-11-13T23:20:30.432Z,10.20
2018-11-13T23:23:34.662Z,10.20
2018-11-13T23:26:39.275Z,10.10
2018-11-13T23:29:43.484Z,10.10
2018-11-13T23:32:47.947Z,10.10
2018-11-13T23:35:52.218Z,10.10
2018-11-13T23:38:56.450Z,10.10
2018-11-13T23:42:00.676Z,10.00
2018-11-13T23:45:04.947Z,10.00
2018-11-13T23:48:09.152Z,10.00
2018-11-13T23:51:13.389Z,10.00
2018-11-13T23:54:17.612Z,9.90
2018-11-13T23:57:21.894Z,9.80
